sensor_id;sensor_type;location;lat;lon;timestamp;temperature;humidity
52849;DHT22;38714;53.180;5.812;2022-08-25T00:02:24;21.10;99.90
52849;DHT22;38714;53.180;5.812;2022-08-25T00:04:49;21.10;99.90
52849;DHT22;38714;53.180;5.812;2022-08-25T00:07:15;21.10;99.90
52849;DHT22;38714;53.180;5.812;2022-08-25T00:09:40;21.10;99.90
52849;DHT22;38714;53.180;5.812;2022-08-25T00:12:06;21.10;99.90
52849;DHT22;38714;53.180;5.812;2022-08-25T00:14:34;21.10;99.90
52849;DHT22;38714;53.180;5.812;2022-08-25T00:17:00;21.10;99.90
52849;DHT22;38714;53.180;5.812;2022-08-25T00:19:27;21.10;99.90
52849;DHT22;38714;53.180;5.812;2022-08-25T00:21:54;21.10;99.90
52849;DHT22;38714;53.180;5.812;2022-08-25T00:24:19;21.10;99.90
52849;DHT22;38714;53.180;5.812;2022-08-25T00:26:46;21.10;99.90
52849;DHT22;38714;53.180;5.812;2022-08-25T00:29:12;21.00;99.90
52849;DHT22;38714;53.180;5.812;2022-08-25T00:31:38;21.00;99.90
52849;DHT22;38714;53.180;5.812;2022-08-25T00:34:05;21.00;99.90
52849;DHT22;38714;53.180;5.812;2022-08-25T00:36:32;21.00;99.90
52849;DHT22;38714;53.180;5.812;2022-08-25T00:38:57;21.00;99.90
52849;DHT22;38714;53.180;5.812;2022-08-25T00:41:23;21.00;99.90
52849;DHT22;38714;53.180;5.812;2022-08-25T00:46:17;21.00;99.90
52849;DHT22;38714;53.180;5.812;2022-08-25T00:48:43;20.90;99.90
52849;DHT22;38714;53.180;5.812;2022-08-25T00:51:11;20.90;99.90
52849;DHT22;38714;53.180;5.812;2022-08-25T00:53:37;20.90;99.90
52849;DHT22;38714;53.180;5.812;2022-08-25T00:56:03;20.90;99.90
52849;DHT22;38714;53.180;5.812;2022-08-25T00:58:29;20.80;99.90
52849;DHT22;38714;53.180;5.812;2022-08-25T01:00:55;20.80;99.90
52849;DHT22;38714;53.180;5.812;2022-08-25T01:03:22;20.80;99.90
52849;DHT22;38714;53.180;5.812;2022-08-25T01:05:48;20.70;99.90
52849;DHT22;38714;53.180;5.812;2022-08-25T01:08:14;20.70;99.90
52849;DHT22;38714;53.180;5.812;2022-08-25T01:10:42;20.70;99.90
52849;DHT22;38714;53.180;5.812;2022-08-25T01:13:08;20.70;99.90
52849;DHT22;38714;53.180;5.812;2022-08-25T01:15:35;20.60;99.90
52849;DHT22;38714;53.180;5.812;2022-08-25T01:18:00;20.60;99.90
52849;DHT22;38714;53.180;5.812;2022-08-25T01:20:27;20.60;99.90
52849;DHT22;38714;53.180;5.812;2022-08-25T01:22:53;20.60;99.90
52849;DHT22;38714;53.180;5.812;2022-08-25T01:27:45;20.60;99.90
52849;DHT22;38714;53.180;5.812;2022-08-25T01:30:10;20.50;99.90
52849;DHT22;38714;53.180;5.812;2022-08-25T01:32:36;20.50;99.90
52849;DHT22;38714;53.180;5.812;2022-08-25T01:35:02;20.50;99.90
52849;DHT22;38714;53.180;5.812;2022-08-25T01:37:27;20.40;99.90
52849;DHT22;38714;53.180;5.812;2022-08-25T01:39:53;20.50;99.90
52849;DHT22;38714;53.180;5.812;2022-08-25T01:44:44;20.30;99.90
52849;DHT22;38714;53.180;5.812;2022-08-25T01:47:10;20.30;99.90
52849;DHT22;38714;53.180;5.812;2022-08-25T01:49:36;20.30;99.90
52849;DHT22;38714;53.180;5.812;2022-08-25T01:54:36;20.30;99.90
52849;DHT22;38714;53.180;5.812;2022-08-25T01:57:01;20.20;99.90
52849;DHT22;38714;53.180;5.812;2022-08-25T01:59:27;20.20;99.90
52849;DHT22;38714;53.180;5.812;2022-08-25T02:01:53;20.20;99.90
52849;DHT22;38714;53.180;5.812;2022-08-25T02:04:18;20.20;99.90
52849;DHT22;38714;53.180;5.812;2022-08-25T02:06:44;20.20;99.90
52849;DHT22;38714;53.180;5.812;2022-08-25T02:09:10;20.10;99.90
52849;DHT22;38714;53.180;5.812;2022-08-25T02:11:39;20.10;99.90
52849;DHT22;38714;53.180;5.812;2022-08-25T02:14:05;20.10;99.90
52849;DHT22;38714;53.180;5.812;2022-08-25T02:16:31;20.00;99.90
52849;DHT22;38714;53.180;5.812;2022-08-25T02:18:57;20.00;99.90
52849;DHT22;38714;53.180;5.812;2022-08-25T02:21:23;20.00;99.90
52849;DHT22;38714;53.180;5.812;2022-08-25T02:23:49;20.00;99.90
52849;DHT22;38714;53.180;5.812;2022-08-25T02:26:14;20.00;99.90
52849;DHT22;38714;53.180;5.812;2022-08-25T02:28:44;20.00;99.90
52849;DHT22;38714;53.180;5.812;2022-08-25T02:31:10;19.90;99.90
52849;DHT22;38714;53.180;5.812;2022-08-25T02:33:36;20.00;99.90
52849;DHT22;38714;53.180;5.812;2022-08-25T02:36:01;20.00;99.90
52849;DHT22;38714;53.180;5.812;2022-08-25T02:38:27;19.90;99.90
52849;DHT22;38714;53.180;5.812;2022-08-25T02:40:54;19.90;99.90
52849;DHT22;38714;53.180;5.812;2022-08-25T02:43:19;19.90;99.90
52849;DHT22;38714;53.180;5.812;2022-08-25T02:45:45;19.90;99.90
52849;DHT22;38714;53.180;5.812;2022-08-25T02:48:10;19.80;99.90
52849;DHT22;38714;53.180;5.812;2022-08-25T02:50:36;19.90;99.90
52849;DHT22;38714;53.180;5.812;2022-08-25T02:53:01;19.80;99.90
52849;DHT22;38714;53.180;5.812;2022-08-25T02:55:27;19.80;99.90
52849;DHT22;38714;53.180;5.812;2022-08-25T02:57:52;19.70;99.90
52849;DHT22;38714;53.180;5.812;2022-08-25T03:00:18;19.70;99.90
52849;DHT22;38714;53.180;5.812;2022-08-25T03:02:43;19.70;99.90
52849;DHT22;38714;53.180;5.812;2022-08-25T03:05:09;19.60;99.90
52849;DHT22;38714;53.180;5.812;2022-08-25T03:07:35;19.60;99.90
52849;DHT22;38714;53.180;5.812;2022-08-25T03:10:20;19.60;99.90
52849;DHT22;38714;53.180;5.812;2022-08-25T03:12:46;19.60;99.90
52849;DHT22;38714;53.180;5.812;2022-08-25T03:15:12;19.60;99.90
52849;DHT22;38714;53.180;5.812;2022-08-25T03:17:41;19.50;99.90
52849;DHT22;38714;53.180;5.812;2022-08-25T03:20:07;19.50;99.90
52849;DHT22;38714;53.180;5.812;2022-08-25T03:22:32;19.50;99.90
52849;DHT22;38714;53.180;5.812;2022-08-25T03:24:58;19.50;99.90
52849;DHT22;38714;53.180;5.812;2022-08-25T03:27:43;19.50;99.90
52849;DHT22;38714;53.180;5.812;2022-08-25T03:30:09;19.50;99.90
52849;DHT22;38714;53.180;5.812;2022-08-25T03:32:35;19.40;99.90
52849;DHT22;38714;53.180;5.812;2022-08-25T03:35:00;19.50;99.90
52849;DHT22;38714;53.180;5.812;2022-08-25T03:37:26;19.50;99.90
52849;DHT22;38714;53.180;5.812;2022-08-25T03:39:51;19.50;99.90
52849;DHT22;38714;53.180;5.812;2022-08-25T03:42:17;19.40;99.90
52849;DHT22;38714;53.180;5.812;2022-08-25T03:44:42;19.40;99.90
52849;DHT22;38714;53.180;5.812;2022-08-25T03:47:08;19.40;99.90
52849;DHT22;38714;53.180;5.812;2022-08-25T03:49:34;19.40;99.90
52849;DHT22;38714;53.180;5.812;2022-08-25T03:51:59;19.30;99.90
52849;DHT22;38714;53.180;5.812;2022-08-25T03:54:26;19.40;99.90
52849;DHT22;38714;53.180;5.812;2022-08-25T03:56:52;19.30;99.90
52849;DHT22;38714;53.180;5.812;2022-08-25T03:59:18;19.30;99.90
52849;DHT22;38714;53.180;5.812;2022-08-25T04:01:43;19.30;99.90
52849;DHT22;38714;53.180;5.812;2022-08-25T04:04:11;19.30;99.90
52849;DHT22;38714;53.180;5.812;2022-08-25T04:06:37;19.30;99.90
52849;DHT22;38714;53.180;5.812;2022-08-25T04:09:02;19.30;99.90
52849;DHT22;38714;53.180;5.812;2022-08-25T04:11:28;19.30;99.90
52849;DHT22;38714;53.180;5.812;2022-08-25T04:13:55;19.20;99.90
52849;DHT22;38714;53.180;5.812;2022-08-25T04:16:22;19.20;99.90
52849;DHT22;38714;53.180;5.812;2022-08-25T04:18:48;19.20;99.90
52849;DHT22;38714;53.180;5.812;2022-08-25T04:21:14;19.20;99.90
52849;DHT22;38714;53.180;5.812;2022-08-25T04:23:40;19.20;99.90
52849;DHT22;38714;53.180;5.812;2022-08-25T04:26:07;19.20;99.90
52849;DHT22;38714;53.180;5.812;2022-08-25T04:28:33;19.10;99.90
52849;DHT22;38714;53.180;5.812;2022-08-25T04:30:58;19.20;99.90
52849;DHT22;38714;53.180;5.812;2022-08-25T04:33:23;19.10;99.90
52849;DHT22;38714;53.180;5.812;2022-08-25T04:35:49;19.10;99.90
52849;DHT22;38714;53.180;5.812;2022-08-25T04:38:15;19.20;99.90
52849;DHT22;38714;53.180;5.812;2022-08-25T04:40:40;19.20;99.90
52849;DHT22;38714;53.180;5.812;2022-08-25T04:43:06;19.20;99.90
52849;DHT22;38714;53.180;5.812;2022-08-25T04:45:35;19.20;99.90
52849;DHT22;38714;53.180;5.812;2022-08-25T04:48:00;19.20;99.90
52849;DHT22;38714;53.180;5.812;2022-08-25T04:50:26;19.20;99.90
52849;DHT22;38714;53.180;5.812;2022-08-25T04:52:51;19.20;99.90
52849;DHT22;38714;53.180;5.812;2022-08-25T04:55:17;19.20;99.90
52849;DHT22;38714;53.180;5.812;2022-08-25T04:57:42;19.20;99.90
52849;DHT22;38714;53.180;5.812;2022-08-25T05:00:08;19.20;99.90
52849;DHT22;38714;53.180;5.812;2022-08-25T05:02:33;19.20;99.90
52849;DHT22;38714;53.180;5.812;2022-08-25T05:04:59;19.20;99.90
52849;DHT22;38714;53.180;5.812;2022-08-25T05:07:25;19.20;99.90
52849;DHT22;38714;53.180;5.812;2022-08-25T05:09:51;19.20;99.90
52849;DHT22;38714;53.180;5.812;2022-08-25T05:12:16;19.20;99.90
52849;DHT22;38714;53.180;5.812;2022-08-25T05:14:42;19.20;99.90
52849;DHT22;38714;53.180;5.812;2022-08-25T05:17:07;19.20;99.90
52849;DHT22;38714;53.180;5.812;2022-08-25T05:19:33;19.20;99.90
52849;DHT22;38714;53.180;5.812;2022-08-25T05:22:00;19.20;99.90
52849;DHT22;38714;53.180;5.812;2022-08-25T05:24:25;19.20;99.90
52849;DHT22;38714;53.180;5.812;2022-08-25T05:26:52;19.20;99.90
52849;DHT22;38714;53.180;5.812;2022-08-25T05:29:17;19.20;99.90
52849;DHT22;38714;53.180;5.812;2022-08-25T05:31:43;19.20;99.90
52849;DHT22;38714;53.180;5.812;2022-08-25T05:34:09;19.20;99.90
52849;DHT22;38714;53.180;5.812;2022-08-25T05:36:36;19.30;99.90
52849;DHT22;38714;53.180;5.812;2022-08-25T05:39:03;19.30;99.90
52849;DHT22;38714;53.180;5.812;2022-08-25T05:41:29;19.30;99.90
52849;DHT22;38714;53.180;5.812;2022-08-25T05:43:54;19.30;99.90
52849;DHT22;38714;53.180;5.812;2022-08-25T05:46:20;19.30;99.90
52849;DHT22;38714;53.180;5.812;2022-08-25T05:48:46;19.40;99.90
52849;DHT22;38714;53.180;5.812;2022-08-25T05:51:13;19.40;99.90
52849;DHT22;38714;53.180;5.812;2022-08-25T05:53:42;19.40;99.90
52849;DHT22;38714;53.180;5.812;2022-08-25T05:56:08;19.40;99.90
52849;DHT22;38714;53.180;5.812;2022-08-25T05:58:34;19.50;99.90
52849;DHT22;38714;53.180;5.812;2022-08-25T06:01:00;19.50;99.90
52849;DHT22;38714;53.180;5.812;2022-08-25T06:03:45;19.50;99.90
52849;DHT22;38714;53.180;5.812;2022-08-25T06:06:12;19.50;99.90
52849;DHT22;38714;53.180;5.812;2022-08-25T06:08:37;19.60;99.90
52849;DHT22;38714;53.180;5.812;2022-08-25T06:11:03;19.60;99.90
52849;DHT22;38714;53.180;5.812;2022-08-25T06:13:28;19.60;99.90
52849;DHT22;38714;53.180;5.812;2022-08-25T06:15:58;19.70;99.90
52849;DHT22;38714;53.180;5.812;2022-08-25T06:18:23;19.70;99.90
52849;DHT22;38714;53.180;5.812;2022-08-25T06:20:49;19.70;99.90
52849;DHT22;38714;53.180;5.812;2022-08-25T06:23:15;19.70;99.90
52849;DHT22;38714;53.180;5.812;2022-08-25T06:25:48;19.80;99.90
52849;DHT22;38714;53.180;5.812;2022-08-25T06:28:13;19.80;99.90
52849;DHT22;38714;53.180;5.812;2022-08-25T06:30:39;19.90;99.90
52849;DHT22;38714;53.180;5.812;2022-08-25T06:33:04;19.90;99.90
52849;DHT22;38714;53.180;5.812;2022-08-25T06:35:30;19.90;99.90
52849;DHT22;38714;53.180;5.812;2022-08-25T06:37:55;20.00;99.90
52849;DHT22;38714;53.180;5.812;2022-08-25T06:40:21;20.00;99.90
52849;DHT22;38714;53.180;5.812;2022-08-25T06:42:47;20.00;99.90
52849;DHT22;38714;53.180;5.812;2022-08-25T06:45:13;20.00;99.90
52849;DHT22;38714;53.180;5.812;2022-08-25T06:47:38;20.10;99.90
52849;DHT22;38714;53.180;5.812;2022-08-25T06:50:04;20.10;99.90
52849;DHT22;38714;53.180;5.812;2022-08-25T06:52:30;20.20;99.90
52849;DHT22;38714;53.180;5.812;2022-08-25T06:54:55;20.20;99.90
52849;DHT22;38714;53.180;5.812;2022-08-25T06:57:21;20.20;99.90
52849;DHT22;38714;53.180;5.812;2022-08-25T06:59:46;20.30;99.90
52849;DHT22;38714;53.180;5.812;2022-08-25T07:02:12;20.30;99.90
52849;DHT22;38714;53.180;5.812;2022-08-25T07:04:37;20.40;99.90
52849;DHT22;38714;53.180;5.812;2022-08-25T07:07:03;20.40;99.90
52849;DHT22;38714;53.180;5.812;2022-08-25T07:09:29;20.40;99.90
52849;DHT22;38714;53.180;5.812;2022-08-25T07:11:54;20.50;99.90
52849;DHT22;38714;53.180;5.812;2022-08-25T07:14:20;20.60;99.90
52849;DHT22;38714;53.180;5.812;2022-08-25T07:16:46;20.60;99.90
52849;DHT22;38714;53.180;5.812;2022-08-25T07:19:12;20.70;99.90
52849;DHT22;38714;53.180;5.812;2022-08-25T07:21:39;20.80;99.90
52849;DHT22;38714;53.180;5.812;2022-08-25T07:24:07;20.80;99.90
52849;DHT22;38714;53.180;5.812;2022-08-25T07:26:33;20.90;99.90
52849;DHT22;38714;53.180;5.812;2022-08-25T07:29:00;20.90;99.90
52849;DHT22;38714;53.180;5.812;2022-08-25T07:31:25;21.00;99.90
52849;DHT22;38714;53.180;5.812;2022-08-25T07:33:51;21.00;99.90
52849;DHT22;38714;53.180;5.812;2022-08-25T07:36:35;21.00;99.90
52849;DHT22;38714;53.180;5.812;2022-08-25T07:39:03;21.10;99.90
52849;DHT22;38714;53.180;5.812;2022-08-25T07:41:37;21.10;99.90
52849;DHT22;38714;53.180;5.812;2022-08-25T07:44:03;21.10;99.90
52849;DHT22;38714;53.180;5.812;2022-08-25T07:46:28;21.20;99.90
52849;DHT22;38714;53.180;5.812;2022-08-25T07:48:54;21.30;99.90
52849;DHT22;38714;53.180;5.812;2022-08-25T07:51:22;21.30;99.90
52849;DHT22;38714;53.180;5.812;2022-08-25T07:53:48;21.30;99.90
52849;DHT22;38714;53.180;5.812;2022-08-25T07:56:14;21.40;99.90
52849;DHT22;38714;53.180;5.812;2022-08-25T07:58:40;21.40;99.90
52849;DHT22;38714;53.180;5.812;2022-08-25T08:01:28;21.40;99.90
52849;DHT22;38714;53.180;5.812;2022-08-25T08:03:54;21.50;99.90
52849;DHT22;38714;53.180;5.812;2022-08-25T08:06:22;21.50;99.90
52849;DHT22;38714;53.180;5.812;2022-08-25T08:08:49;21.60;99.90
52849;DHT22;38714;53.180;5.812;2022-08-25T08:11:16;21.60;99.90
52849;DHT22;38714;53.180;5.812;2022-08-25T08:13:42;21.60;99.90
52849;DHT22;38714;53.180;5.812;2022-08-25T08:16:08;21.70;99.90
52849;DHT22;38714;53.180;5.812;2022-08-25T08:18:34;21.80;99.90
52849;DHT22;38714;53.180;5.812;2022-08-25T08:20:59;21.80;99.90
52849;DHT22;38714;53.180;5.812;2022-08-25T08:23:25;21.90;99.90
52849;DHT22;38714;53.180;5.812;2022-08-25T08:25:52;22.00;99.90
52849;DHT22;38714;53.180;5.812;2022-08-25T08:28:17;22.00;99.90
52849;DHT22;38714;53.180;5.812;2022-08-25T08:30:43;22.10;99.90
52849;DHT22;38714;53.180;5.812;2022-08-25T08:33:08;22.10;99.90
52849;DHT22;38714;53.180;5.812;2022-08-25T08:35:34;22.10;99.90
52849;DHT22;38714;53.180;5.812;2022-08-25T08:37:59;22.20;99.90
52849;DHT22;38714;53.180;5.812;2022-08-25T08:40:24;22.20;99.90
52849;DHT22;38714;53.180;5.812;2022-08-25T08:45:49;22.30;99.90
52849;DHT22;38714;53.180;5.812;2022-08-25T08:53:38;22.50;99.90
52849;DHT22;38714;53.180;5.812;2022-08-25T08:56:05;22.60;99.90
52849;DHT22;38714;53.180;5.812;2022-08-25T08:58:53;22.60;99.90
52849;DHT22;38714;53.180;5.812;2022-08-25T09:01:30;22.70;99.90
52849;DHT22;38714;53.180;5.812;2022-08-25T09:03:59;22.80;99.90
52849;DHT22;38714;53.180;5.812;2022-08-25T09:06:37;22.80;99.90
52849;DHT22;38714;53.180;5.812;2022-08-25T09:09:04;22.90;99.90
52849;DHT22;38714;53.180;5.812;2022-08-25T09:21:56;23.40;99.90
52849;DHT22;38714;53.180;5.812;2022-08-25T09:24:30;23.50;99.90
52849;DHT22;38714;53.180;5.812;2022-08-25T09:32:16;23.60;99.90
52849;DHT22;38714;53.180;5.812;2022-08-25T09:34:41;23.70;99.90
52849;DHT22;38714;53.180;5.812;2022-08-25T09:37:07;23.70;99.90
52849;DHT22;38714;53.180;5.812;2022-08-25T09:39:33;23.80;99.90
52849;DHT22;38714;53.180;5.812;2022-08-25T09:41:58;23.90;99.90
52849;DHT22;38714;53.180;5.812;2022-08-25T09:44:32;23.90;99.90
52849;DHT22;38714;53.180;5.812;2022-08-25T09:49:40;24.00;99.90
52849;DHT22;38714;53.180;5.812;2022-08-25T09:53:06;24.10;99.90
52849;DHT22;38714;53.180;5.812;2022-08-25T09:57:43;24.20;99.90
52849;DHT22;38714;53.180;5.812;2022-08-25T10:02:35;24.30;99.90
52849;DHT22;38714;53.180;5.812;2022-08-25T10:05:15;24.40;99.90
52849;DHT22;38714;53.180;5.812;2022-08-25T10:07:47;24.50;99.90
52849;DHT22;38714;53.180;5.812;2022-08-25T10:10:20;24.60;99.90
52849;DHT22;38714;53.180;5.812;2022-08-25T10:12:47;24.60;99.90
52849;DHT22;38714;53.180;5.812;2022-08-25T10:15:20;24.70;99.90
52849;DHT22;38714;53.180;5.812;2022-08-25T10:17:46;24.70;99.90
52849;DHT22;38714;53.180;5.812;2022-08-25T10:20:15;24.80;99.90
52849;DHT22;38714;53.180;5.812;2022-08-25T10:22:42;24.90;99.90
52849;DHT22;38714;53.180;5.812;2022-08-25T10:25:08;24.90;99.90
52849;DHT22;38714;53.180;5.812;2022-08-25T10:27:47;24.90;99.90
52849;DHT22;38714;53.180;5.812;2022-08-25T10:30:16;24.90;99.90
52849;DHT22;38714;53.180;5.812;2022-08-25T10:35:23;25.20;99.10
52849;DHT22;38714;53.180;5.812;2022-08-25T10:40:50;25.20;99.90
52849;DHT22;38714;53.180;5.812;2022-08-25T10:45:44;25.40;99.90
52849;DHT22;38714;53.180;5.812;2022-08-25T10:50:46;25.40;97.80
52849;DHT22;38714;53.180;5.812;2022-08-25T10:53:15;25.40;97.90
52849;DHT22;38714;53.180;5.812;2022-08-25T10:55:50;25.50;99.20
52849;DHT22;38714;53.180;5.812;2022-08-25T11:01:08;25.60;99.30
52849;DHT22;38714;53.180;5.812;2022-08-25T11:03:46;25.60;98.70
52849;DHT22;38714;53.180;5.812;2022-08-25T11:06:18;25.60;98.80
52849;DHT22;38714;53.180;5.812;2022-08-25T11:08:46;25.60;97.60
52849;DHT22;38714;53.180;5.812;2022-08-25T11:14:03;25.70;97.20
52849;DHT22;38714;53.180;5.812;2022-08-25T11:18:58;25.80;98.00
52849;DHT22;38714;53.180;5.812;2022-08-25T11:26:39;25.90;97.40
52849;DHT22;38714;53.180;5.812;2022-08-25T11:29:13;26.00;97.40
52849;DHT22;38714;53.180;5.812;2022-08-25T11:31:44;26.10;97.90
52849;DHT22;38714;53.180;5.812;2022-08-25T11:34:11;26.10;99.00
52849;DHT22;38714;53.180;5.812;2022-08-25T11:36:41;26.10;98.80
52849;DHT22;38714;53.180;5.812;2022-08-25T11:51:49;26.40;97.00
52849;DHT22;38714;53.180;5.812;2022-08-25T11:54:17;26.40;95.10
52849;DHT22;38714;53.180;5.812;2022-08-25T11:56:49;26.40;95.20
52849;DHT22;38714;53.180;5.812;2022-08-25T11:59:45;26.50;96.60
52849;DHT22;38714;53.180;5.812;2022-08-25T12:02:01;26.50;96.00
52849;DHT22;38714;53.180;5.812;2022-08-25T12:04:40;26.50;97.20
52849;DHT22;38714;53.180;5.812;2022-08-25T12:14:50;26.80;94.90
52849;DHT22;38714;53.180;5.812;2022-08-25T12:17:17;26.70;95.00
52849;DHT22;38714;53.180;5.812;2022-08-25T12:27:26;26.80;94.10
52849;DHT22;38714;53.180;5.812;2022-08-25T12:37:19;27.00;93.90
52849;DHT22;38714;53.180;5.812;2022-08-25T12:39:52;27.00;94.20
52849;DHT22;38714;53.180;5.812;2022-08-25T12:42:36;27.10;92.90
52849;DHT22;38714;53.180;5.812;2022-08-25T12:48:40;27.00;93.60
52849;DHT22;38714;53.180;5.812;2022-08-25T12:50:43;27.00;93.20
52849;DHT22;38714;53.180;5.812;2022-08-25T12:53:21;27.10;93.40
52849;DHT22;38714;53.180;5.812;2022-08-25T12:55:51;27.10;94.30
52849;DHT22;38714;53.180;5.812;2022-08-25T12:58:18;27.10;92.30
52849;DHT22;38714;53.180;5.812;2022-08-25T13:03:20;27.10;92.00
52849;DHT22;38714;53.180;5.812;2022-08-25T13:06:07;27.10;92.30
52849;DHT22;38714;53.180;5.812;2022-08-25T13:08:40;27.20;92.90
52849;DHT22;38714;53.180;5.812;2022-08-25T13:13:59;27.30;90.90
52849;DHT22;38714;53.180;5.812;2022-08-25T13:16:26;27.20;90.40
52849;DHT22;38714;53.180;5.812;2022-08-25T13:18:53;27.30;87.40
52849;DHT22;38714;53.180;5.812;2022-08-25T13:21:36;27.30;90.10
52849;DHT22;38714;53.180;5.812;2022-08-25T13:24:04;27.30;90.50
52849;DHT22;38714;53.180;5.812;2022-08-25T13:26:35;27.30;91.10
52849;DHT22;38714;53.180;5.812;2022-08-25T13:29:10;27.30;87.20
52849;DHT22;38714;53.180;5.812;2022-08-25T13:31:37;27.30;91.60
52849;DHT22;38714;53.180;5.812;2022-08-25T13:34:05;27.30;90.30
52849;DHT22;38714;53.180;5.812;2022-08-25T13:36:36;27.40;85.40
52849;DHT22;38714;53.180;5.812;2022-08-25T13:39:25;27.40;87.70
52849;DHT22;38714;53.180;5.812;2022-08-25T13:41:52;27.40;78.60
52849;DHT22;38714;53.180;5.812;2022-08-25T13:44:19;27.50;87.60
52849;DHT22;38714;53.180;5.812;2022-08-25T13:46:45;27.50;87.10
52849;DHT22;38714;53.180;5.812;2022-08-25T13:49:11;27.50;87.50
52849;DHT22;38714;53.180;5.812;2022-08-25T13:51:39;27.60;85.90
52849;DHT22;38714;53.180;5.812;2022-08-25T13:54:25;27.50;87.30
52849;DHT22;38714;53.180;5.812;2022-08-25T13:56:51;27.60;87.80
52849;DHT22;38714;53.180;5.812;2022-08-25T13:59:24;27.60;90.10
52849;DHT22;38714;53.180;5.812;2022-08-25T14:01:50;27.60;87.80
52849;DHT22;38714;53.180;5.812;2022-08-25T14:06:45;27.70;86.10
52849;DHT22;38714;53.180;5.812;2022-08-25T14:09:15;27.70;87.50
52849;DHT22;38714;53.180;5.812;2022-08-25T14:11:43;27.70;86.30
52849;DHT22;38714;53.180;5.812;2022-08-25T14:14:11;27.70;88.70
52849;DHT22;38714;53.180;5.812;2022-08-25T14:16:38;27.70;87.70
52849;DHT22;38714;53.180;5.812;2022-08-25T14:19:04;27.70;85.90
52849;DHT22;38714;53.180;5.812;2022-08-25T14:21:36;27.70;87.30
52849;DHT22;38714;53.180;5.812;2022-08-25T14:24:01;27.70;84.90
52849;DHT22;38714;53.180;5.812;2022-08-25T14:26:27;27.80;85.80
52849;DHT22;38714;53.180;5.812;2022-08-25T14:28:53;27.80;79.20
52849;DHT22;38714;53.180;5.812;2022-08-25T14:31:25;27.80;80.70
52849;DHT22;38714;53.180;5.812;2022-08-25T14:33:59;27.80;79.10
52849;DHT22;38714;53.180;5.812;2022-08-25T14:36:25;27.80;81.20
52849;DHT22;38714;53.180;5.812;2022-08-25T14:38:52;27.70;81.10
52849;DHT22;38714;53.180;5.812;2022-08-25T14:41:19;27.70;82.20
52849;DHT22;38714;53.180;5.812;2022-08-25T14:43:44;27.70;80.10
52849;DHT22;38714;53.180;5.812;2022-08-25T14:46:16;27.70;80.90
52849;DHT22;38714;53.180;5.812;2022-08-25T14:48:43;27.70;86.60
52849;DHT22;38714;53.180;5.812;2022-08-25T14:51:09;27.60;83.40
52849;DHT22;38714;53.180;5.812;2022-08-25T14:53:35;27.60;79.90
52849;DHT22;38714;53.180;5.812;2022-08-25T14:56:01;27.60;83.70
52849;DHT22;38714;53.180;5.812;2022-08-25T14:58:26;27.60;82.40
52849;DHT22;38714;53.180;5.812;2022-08-25T15:00:52;27.60;79.80
52849;DHT22;38714;53.180;5.812;2022-08-25T15:03:24;27.60;81.10
52849;DHT22;38714;53.180;5.812;2022-08-25T15:05:51;27.70;80.70
52849;DHT22;38714;53.180;5.812;2022-08-25T15:08:16;27.70;80.00
52849;DHT22;38714;53.180;5.812;2022-08-25T15:11:00;27.70;76.60
52849;DHT22;38714;53.180;5.812;2022-08-25T15:13:26;27.70;75.70
52849;DHT22;38714;53.180;5.812;2022-08-25T15:15:52;27.70;76.50
52849;DHT22;38714;53.180;5.812;2022-08-25T15:18:17;27.70;78.40
52849;DHT22;38714;53.180;5.812;2022-08-25T15:20:43;27.70;80.00
52849;DHT22;38714;53.180;5.812;2022-08-25T15:23:08;27.70;77.60
52849;DHT22;38714;53.180;5.812;2022-08-25T15:25:34;27.60;77.50
52849;DHT22;38714;53.180;5.812;2022-08-25T15:28:02;27.60;77.20
52849;DHT22;38714;53.180;5.812;2022-08-25T15:30:28;27.70;79.00
52849;DHT22;38714;53.180;5.812;2022-08-25T15:32:53;27.60;79.30
52849;DHT22;38714;53.180;5.812;2022-08-25T15:35:19;27.70;79.70
52849;DHT22;38714;53.180;5.812;2022-08-25T15:37:45;27.70;77.60
52849;DHT22;38714;53.180;5.812;2022-08-25T15:40:12;27.70;80.00
52849;DHT22;38714;53.180;5.812;2022-08-25T15:42:38;27.60;76.80
52849;DHT22;38714;53.180;5.812;2022-08-25T15:45:03;27.60;78.60
52849;DHT22;38714;53.180;5.812;2022-08-25T15:47:29;27.60;80.60
52849;DHT22;38714;53.180;5.812;2022-08-25T15:50:05;27.60;82.30
52849;DHT22;38714;53.180;5.812;2022-08-25T15:52:31;27.60;79.10
52849;DHT22;38714;53.180;5.812;2022-08-25T15:54:56;27.70;80.90
52849;DHT22;38714;53.180;5.812;2022-08-25T15:57:22;27.70;78.40
52849;DHT22;38714;53.180;5.812;2022-08-25T15:59:47;27.70;78.80
52849;DHT22;38714;53.180;5.812;2022-08-25T16:02:13;27.70;81.00
52849;DHT22;38714;53.180;5.812;2022-08-25T16:04:38;27.70;79.80
52849;DHT22;38714;53.180;5.812;2022-08-25T16:07:04;27.70;81.70
52849;DHT22;38714;53.180;5.812;2022-08-25T16:09:30;27.70;81.20
52849;DHT22;38714;53.180;5.812;2022-08-25T16:11:55;27.80;82.90
52849;DHT22;38714;53.180;5.812;2022-08-25T16:14:21;27.80;85.30
52849;DHT22;38714;53.180;5.812;2022-08-25T16:16:46;27.70;85.60
52849;DHT22;38714;53.180;5.812;2022-08-25T16:19:12;27.70;81.40
52849;DHT22;38714;53.180;5.812;2022-08-25T16:21:39;27.80;83.10
52849;DHT22;38714;53.180;5.812;2022-08-25T16:24:05;27.70;83.00
52849;DHT22;38714;53.180;5.812;2022-08-25T16:26:31;27.70;85.20
52849;DHT22;38714;53.180;5.812;2022-08-25T16:28:57;27.70;85.90
52849;DHT22;38714;53.180;5.812;2022-08-25T16:31:23;27.60;84.90
52849;DHT22;38714;53.180;5.812;2022-08-25T16:33:48;27.60;85.80
52849;DHT22;38714;53.180;5.812;2022-08-25T16:36:15;27.60;86.00
52849;DHT22;38714;53.180;5.812;2022-08-25T16:38:43;27.60;90.00
52849;DHT22;38714;53.180;5.812;2022-08-25T16:41:10;27.60;89.20
52849;DHT22;38714;53.180;5.812;2022-08-25T16:43:35;27.60;87.90
52849;DHT22;38714;53.180;5.812;2022-08-25T16:46:02;27.60;90.10
52849;DHT22;38714;53.180;5.812;2022-08-25T16:48:28;27.60;88.80
52849;DHT22;38714;53.180;5.812;2022-08-25T16:50:55;27.50;91.20
52849;DHT22;38714;53.180;5.812;2022-08-25T16:53:20;27.50;91.90
52849;DHT22;38714;53.180;5.812;2022-08-25T16:56:04;27.50;91.80
52849;DHT22;38714;53.180;5.812;2022-08-25T16:58:30;27.50;91.80
52849;DHT22;38714;53.180;5.812;2022-08-25T17:01:07;27.40;93.40
52849;DHT22;38714;53.180;5.812;2022-08-25T17:03:33;27.40;93.00
52849;DHT22;38714;53.180;5.812;2022-08-25T17:05:58;27.30;94.20
52849;DHT22;38714;53.180;5.812;2022-08-25T17:08:24;27.20;94.60
52849;DHT22;38714;53.180;5.812;2022-08-25T17:10:54;27.20;94.40
52849;DHT22;38714;53.180;5.812;2022-08-25T17:13:20;27.10;95.30
52849;DHT22;38714;53.180;5.812;2022-08-25T17:15:46;27.10;95.20
52849;DHT22;38714;53.180;5.812;2022-08-25T17:18:13;27.00;95.60
52849;DHT22;38714;53.180;5.812;2022-08-25T17:20:39;26.90;97.60
52849;DHT22;38714;53.180;5.812;2022-08-25T17:23:06;26.90;98.00
52849;DHT22;38714;53.180;5.812;2022-08-25T17:25:35;26.80;99.90